»·PEaware :: SWA112 KSAN-KPHX

SWA112 :: KSAN-KPHX

FLIGHT INFORMATION

Flight Status: Arrived
Operator:
Southwest Airlines
More flights by this operator :: More flights under this callsign
Pilot: Steve F. (26981)
Aircraft: BOEING 737-800
(B738)
More flights by this aircraft type
Origin: KSAN San Diego Intl-Lindbergh
United States
Destination: KPHX Phoenix Sky Harbor Intl
United States
More flights between these airports :: More routes between these airports
Route: ZZOOO2 IPL J18 BZA HOGGZ HYDRR1
File this flight plan on PilotEdge
Remarks:
Altitude:
(Current/Filed)
27,000ft
Speed:
(Current/Filed)
430kts
Departed: 10-Feb-20 05:57 PM
Arrived: 10-Feb-20 06:56 PM
Distance/Time
Traveled:
264nm/0:59
Distance/Time
To Go:
Arrived

Flight Plot

Page will automatically refresh every two minutes.

Flight plan parsing failed; only flown route is shown


Map Options




Map Legend


Flown Route
Filed Route
Departure Airport
Arrival Airport
Navaid (VOR, NDB)
Fix

Horizontal Profiles

Position Reports

Time Latitude Longitude Heading Altitude Ground
Speed
10-Feb-20 17:40 32.733069 -117.195870 226 23ft 0kts
10-Feb-20 17:41 32.733069 -117.195870 226 23ft 0kts
10-Feb-20 17:42 32.733069 -117.195870 226 23ft 0kts
10-Feb-20 17:43 32.733069 -117.195870 226 23ft 0kts
10-Feb-20 17:44 32.733069 -117.195870 226 23ft 0kts
10-Feb-20 17:45 32.733069 -117.195870 226 23ft 0kts
10-Feb-20 17:46 32.733069 -117.195870 226 23ft 0kts
10-Feb-20 17:47 32.733069 -117.195870 226 23ft 0kts
10-Feb-20 17:48 32.733069 -117.195870 226 23ft 0kts
10-Feb-20 17:49 32.733538 -117.195586 182 23ft 0kts
10-Feb-20 17:50 32.733538 -117.195586 182 23ft 0kts
10-Feb-20 17:51 32.733537 -117.195586 182 23ft 0kts
10-Feb-20 17:52 32.733415 -117.195456 92 23ft 4kts
10-Feb-20 17:53 32.732656 -117.189810 105 23ft 28kts
10-Feb-20 17:54 32.730581 -117.181037 106 23ft 24kts
10-Feb-20 17:55 32.729789 -117.176008 66 23ft 10kts
10-Feb-20 17:56 32.734514 -117.193501 285 25ft 156kts
10-Feb-20 17:57 32.748818 -117.251075 285 2801ft 198kts
10-Feb-20 17:58 32.739964 -117.318166 211 4884ft 256kts
10-Feb-20 17:59 32.673651 -117.295894 133 7477ft 270kts
10-Feb-20 18:00 32.630331 -117.222561 98 10373ft 276kts
10-Feb-20 18:01 32.621255 -117.132101 90 13656ft 279kts
10-Feb-20 18:02 32.612991 -117.038636 90 16715ft 292kts
10-Feb-20 18:03 32.604185 -116.940750 88 19552ft 303kts
10-Feb-20 18:04 32.617723 -116.836119 73 20834ft 352kts
10-Feb-20 18:05 32.637079 -116.716118 80 22570ft 382kts
10-Feb-20 18:06 32.648504 -116.588904 80 24521ft 395kts
10-Feb-20 18:07 32.660940 -116.455953 80 26056ft 413kts
10-Feb-20 18:08 32.674472 -116.317910 80 26900ft 427kts
10-Feb-20 18:09 32.687595 -116.178787 81 26917ft 424kts
10-Feb-20 18:10 32.700508 -116.039342 81 26927ft 425kts
10-Feb-20 18:11 32.713490 -115.899203 81 26935ft 427kts
10-Feb-20 18:12 32.726547 -115.758871 82 26944ft 428kts
10-Feb-20 18:13 32.739086 -115.618845 82 26941ft 427kts
10-Feb-20 18:14 32.750620 -115.477896 85 26920ft 428kts
10-Feb-20 18:15 32.753447 -115.336495 86 26918ft 430kts
10-Feb-20 18:16 32.756475 -115.194233 87 26917ft 430kts
10-Feb-20 18:17 32.759422 -115.051808 87 26915ft 431kts
10-Feb-20 18:18 32.762527 -114.909496 87 26927ft 432kts
10-Feb-20 18:19 32.760506 -114.766549 105 26930ft 438kts
10-Feb-20 18:20 32.691673 -114.645686 126 26928ft 440kts
10-Feb-20 18:21 32.663088 -114.509025 87 26930ft 436kts
10-Feb-20 18:22 32.670698 -114.363242 86 26927ft 453kts
10-Feb-20 18:23 32.679331 -114.216209 86 26923ft 440kts
10-Feb-20 18:24 32.687318 -114.075818 86 25182ft 413kts
10-Feb-20 18:25 32.693988 -113.940800 86 24927ft 414kts
10-Feb-20 18:26 32.702278 -113.804763 86 24925ft 414kts
10-Feb-20 18:27 32.722331 -113.669753 59 24779ft 424kts
10-Feb-20 18:28 32.821870 -113.624011 346 23726ft 404kts
10-Feb-20 18:29 32.921403 -113.654448 25 23162ft 343kts
10-Feb-20 18:30 32.958773 -113.566470 81 22397ft 303kts
10-Feb-20 18:31 32.978080 -113.471278 59 21521ft 297kts
10-Feb-20 18:32 33.033165 -113.395895 51 19888ft 317kts
10-Feb-20 18:33 33.097300 -113.310041 51 19075ft 361kts
10-Feb-20 18:34 33.164129 -113.219672 51 18908ft 357kts
10-Feb-20 18:35 33.229197 -113.131126 51 18928ft 356kts
10-Feb-20 18:36 33.274138 -113.030180 85 18931ft 348kts
10-Feb-20 18:37 33.278211 -112.921040 90 17768ft 316kts
10-Feb-20 18:38 33.280636 -112.819455 89 16408ft 295kts
10-Feb-20 18:39 33.289650 -112.721669 85 15313ft 300kts
10-Feb-20 18:40 33.299354 -112.622563 86 14214ft 301kts
10-Feb-20 18:41 33.308479 -112.524214 86 13112ft 293kts
10-Feb-20 18:42 33.317303 -112.427367 86 12010ft 291kts
10-Feb-20 18:43 33.326259 -112.331772 85 10873ft 288kts
10-Feb-20 18:44 33.334770 -112.236852 85 9670ft 285kts
10-Feb-20 18:45 33.342997 -112.144696 84 9004ft 262kts
10-Feb-20 18:46 33.347874 -112.065330 91 8654ft 229kts
10-Feb-20 18:47 33.346400 -111.986719 91 7306ft 235kts
10-Feb-20 18:48 33.345610 -111.908961 91 5796ft 233kts
10-Feb-20 18:49 33.345573 -111.836889 89 4790ft 210kts
10-Feb-20 18:50 33.388413 -111.811553 1 3760ft 185kts
10-Feb-20 18:51 33.422866 -111.844209 291 3035ft 173kts
10-Feb-20 18:52 33.428870 -111.901164 268 2767ft 175kts
10-Feb-20 18:53 33.428815 -111.951112 269 1973ft 128kts
10-Feb-20 18:54 33.428835 -111.994396 270 1265ft 128kts
10-Feb-20 18:55 33.429196 -112.016548 350 1143ft 12kts
10-Feb-20 18:56 33.432298 -112.015804 51 1143ft 11kts
10-Feb-20 18:57 33.432876 -112.010097 89 1143ft 29kts
10-Feb-20 18:58 33.433082 -112.000698 36 1143ft 19kts
10-Feb-20 18:59 33.433752 -111.999792 86 1143ft 0kts

Navigation Log

Ident Type
Flight plan parsing failed, navigation log unavailable